Anculai, Indonesia

3:46 PM WIB on August 21, 2017 (GMT +0700)
Batam Hang Nadim | | Change Station

Elev 125 ft 1.12 °N, 104.12 °E | Updated 16 minutes ago

Mostly Cloudy
Mostly Cloudy
86 °F
Feels Like 95 °F
N
7
Wind Variable Wind from SSE

Today
High -- | Low -- °F
--% Chance of Precip.
Yesterday
High -- | Low -- °F
Precip. -- in
Pressure 29.77 in
Visibility 6.2 miles
Clouds Few 1400 ft
Heat Index 95 °F
Dew Point 75 °F
Humidity 70%
Rainfall 0.00 in
Snow Depth Not available.
6:01 AM 6:09 PM
Waning Crescent, 0% visible
METAR WIDD 210830Z 16006KT 9999 FEW014 30/24 Q1008 NOSIG
Pressure 29.77 in
Visibility 6.2 miles
Clouds Few 1400 ft
Heat Index 95 °F
Dew Point 75 °F
Humidity 70%
Rainfall 0.00 in
Snow Depth Not available.
6:01 AM 6:09 PM
Waning Crescent, 0% visible
METAR WIDD 210830Z 16006KT 9999 FEW014 30/24 Q1008 NOSIG

Get Severe Weather Alerts

Thanks for signing up!

Be on the lookout for a verification email in your inbox.

You'll start receiving the daily forecast at 6 AM.

×

10-Day Weather Forecast

×

Almanac

Astronomy

Aug. 21, 2017 Rise Set
Actual Time
Civil Twilight
Nautical Twilight
Astronomical Twilight
Moon
Length of Visible Light
Length of Day
Tomorrow will be .
, % of the Moon is Illuminated

Today's Extremes

Country Highs Country Lows

Community

WunderPhotos

Category 6

Welcome to Category 6. This is the collective home for Weather Underground's featured writeups by Dr. Jeff Masters (right), Bob Henson (left), Chris Burt, and other regular contributors.

Nearby

Air Quality

  Air Quality AQ Index Pollutant
Not available.

Snow Depth

Station Depth Elevation

Earthquake Activity

City Distance Mag. Time & Date
Minimum magnitude displayed is 2.5.

Coastal Water Temperatures

Place Temperature

Stations

Nearby Weather Stations

Station Location Temp. Windchill Dew Point Humidity Wind Precip. Elev Updated Type